sensor_id;sensor_type;location;lat;lon;timestamp;pressure;altitude;pressure_sealevel;temperature;humidity
74594;BME280;63097;51.872;4.460;2023-04-23T00:01:26;100893.56;;;8.46;97.37
74594;BME280;63097;51.872;4.460;2023-04-23T00:03:55;100895.25;;;8.47;97.46
74594;BME280;63097;51.872;4.460;2023-04-23T00:06:21;100893.78;;;8.45;97.47
74594;BME280;63097;51.872;4.460;2023-04-23T00:08:47;100888.78;;;8.53;97.51
74594;BME280;63097;51.872;4.460;2023-04-23T00:11:15;100882.81;;;8.38;97.59
74594;BME280;63097;51.872;4.460;2023-04-23T00:13:40;100877.53;;;8.37;98.25
74594;BME280;63097;51.872;4.460;2023-04-23T00:16:06;100875.13;;;8.40;98.05
74594;BME280;63097;51.872;4.460;2023-04-23T00:18:31;100874.75;;;8.37;97.94
74594;BME280;63097;51.872;4.460;2023-04-23T00:20:57;100869.06;;;8.32;97.58
74594;BME280;63097;51.872;4.460;2023-04-23T00:23:22;100863.19;;;8.40;97.87
74594;BME280;63097;51.872;4.460;2023-04-23T00:25:47;100873.28;;;8.34;97.99
74594;BME280;63097;51.872;4.460;2023-04-23T00:28:12;100869.91;;;8.32;97.99
74594;BME280;63097;51.872;4.460;2023-04-23T00:30:38;100851.06;;;8.23;98.31
74594;BME280;63097;51.872;4.460;2023-04-23T00:33:03;100863.00;;;8.23;98.72
74594;BME280;63097;51.872;4.460;2023-04-23T00:35:28;100853.75;;;8.29;98.96
74594;BME280;63097;51.872;4.460;2023-04-23T00:37:54;100852.06;;;8.28;98.90
74594;BME280;63097;51.872;4.460;2023-04-23T00:40:19;100854.28;;;8.49;98.53
74594;BME280;63097;51.872;4.460;2023-04-23T00:42:45;100848.28;;;8.64;97.71
74594;BME280;63097;51.872;4.460;2023-04-23T00:45:10;100841.63;;;8.53;98.10
74594;BME280;63097;51.872;4.460;2023-04-23T00:47:35;100844.41;;;8.53;98.39
74594;BME280;63097;51.872;4.460;2023-04-23T00:50:01;100846.44;;;8.46;98.69
74594;BME280;63097;51.872;4.460;2023-04-23T00:52:27;100843.56;;;8.53;98.75
74594;BME280;63097;51.872;4.460;2023-04-23T00:54:52;100841.97;;;8.45;98.50
74594;BME280;63097;51.872;4.460;2023-04-23T00:57:18;100842.38;;;8.60;98.33
74594;BME280;63097;51.872;4.460;2023-04-23T00:59:43;100846.72;;;8.68;97.79
74594;BME280;63097;51.872;4.460;2023-04-23T01:02:09;100835.97;;;8.71;97.44
74594;BME280;63097;51.872;4.460;2023-04-23T01:04:34;100836.22;;;8.81;96.77
74594;BME280;63097;51.872;4.460;2023-04-23T01:07:01;100829.56;;;8.94;96.34
74594;BME280;63097;51.872;4.460;2023-04-23T01:09:27;100831.22;;;9.06;95.14
74594;BME280;63097;51.872;4.460;2023-04-23T01:11:53;100828.59;;;9.00;95.18
74594;BME280;63097;51.872;4.460;2023-04-23T01:14:18;100827.13;;;8.97;95.21
74594;BME280;63097;51.872;4.460;2023-04-23T01:16:44;100823.41;;;8.92;95.36
74594;BME280;63097;51.872;4.460;2023-04-23T01:19:10;100819.09;;;8.84;95.88
74594;BME280;63097;51.872;4.460;2023-04-23T01:21:36;100820.06;;;8.90;95.69
74594;BME280;63097;51.872;4.460;2023-04-23T01:24:03;100813.16;;;8.92;95.40
74594;BME280;63097;51.872;4.460;2023-04-23T01:26:29;100823.78;;;8.84;95.83
74594;BME280;63097;51.872;4.460;2023-04-23T01:28:54;100820.28;;;8.88;95.43
74594;BME280;63097;51.872;4.460;2023-04-23T01:31:21;100820.66;;;8.80;96.33
74594;BME280;63097;51.872;4.460;2023-04-23T01:33:46;100813.78;;;8.83;95.99
74594;BME280;63097;51.872;4.460;2023-04-23T01:36:13;100830.56;;;8.88;95.54
74594;BME280;63097;51.872;4.460;2023-04-23T01:38:38;100825.13;;;8.93;95.34
74594;BME280;63097;51.872;4.460;2023-04-23T01:41:04;100820.28;;;8.88;95.45
74594;BME280;63097;51.872;4.460;2023-04-23T01:43:30;100823.06;;;9.00;94.69
74594;BME280;63097;51.872;4.460;2023-04-23T01:45:56;100823.06;;;8.88;94.97
74594;BME280;63097;51.872;4.460;2023-04-23T01:48:23;100815.69;;;8.94;94.81
74594;BME280;63097;51.872;4.460;2023-04-23T01:50:49;100815.13;;;8.80;95.16
74594;BME280;63097;51.872;4.460;2023-04-23T01:53:15;100812.94;;;8.71;95.65
74594;BME280;63097;51.872;4.460;2023-04-23T01:55:42;100808.97;;;8.78;95.36
74594;BME280;63097;51.872;4.460;2023-04-23T01:58:07;100823.78;;;8.84;95.28
74594;BME280;63097;51.872;4.460;2023-04-23T02:00:32;100801.84;;;8.82;94.66
74594;BME280;63097;51.872;4.460;2023-04-23T02:02:58;100816.69;;;8.88;95.18
74594;BME280;63097;51.872;4.460;2023-04-23T02:05:24;100815.59;;;8.89;94.67
74594;BME280;63097;51.872;4.460;2023-04-23T02:07:50;100810.53;;;8.86;94.43
74594;BME280;63097;51.872;4.460;2023-04-23T02:10:16;100803.63;;;8.88;94.31
74594;BME280;63097;51.872;4.460;2023-04-23T02:12:42;100798.94;;;8.89;94.64
74594;BME280;63097;51.872;4.460;2023-04-23T02:15:08;100797.88;;;8.90;93.86
74594;BME280;63097;51.872;4.460;2023-04-23T02:17:34;100793.88;;;8.74;94.44
74594;BME280;63097;51.872;4.460;2023-04-23T02:20:00;100798.84;;;8.84;94.33
74594;BME280;63097;51.872;4.460;2023-04-23T02:22:25;100800.84;;;8.88;94.43
74594;BME280;63097;51.872;4.460;2023-04-23T02:24:51;100807.25;;;8.89;94.02
74594;BME280;63097;51.872;4.460;2023-04-23T02:27:17;100803.53;;;8.83;94.36
74594;BME280;63097;51.872;4.460;2023-04-23T02:29:42;100809.69;;;8.97;94.32
74594;BME280;63097;51.872;4.460;2023-04-23T02:32:08;100807.25;;;8.77;94.63
74594;BME280;63097;51.872;4.460;2023-04-23T02:34:33;100809.22;;;8.65;95.31
74594;BME280;63097;51.872;4.460;2023-04-23T02:36:58;100799.91;;;8.60;96.02
74594;BME280;63097;51.872;4.460;2023-04-23T02:39:24;100806.66;;;8.75;94.95
74594;BME280;63097;51.872;4.460;2023-04-23T02:41:49;100805.72;;;8.58;95.39
74594;BME280;63097;51.872;4.460;2023-04-23T02:44:14;100805.72;;;8.58;95.67
74594;BME280;63097;51.872;4.460;2023-04-23T02:46:40;100797.25;;;8.42;96.35
74594;BME280;63097;51.872;4.460;2023-04-23T02:49:05;100795.00;;;8.73;95.92
74594;BME280;63097;51.872;4.460;2023-04-23T02:51:30;100794.38;;;8.60;95.70
74594;BME280;63097;51.872;4.460;2023-04-23T02:53:56;100791.34;;;8.61;95.66
74594;BME280;63097;51.872;4.460;2023-04-23T02:56:21;100791.22;;;8.45;96.33
74594;BME280;63097;51.872;4.460;2023-04-23T02:58:46;100795.19;;;8.37;96.87
74594;BME280;63097;51.872;4.460;2023-04-23T03:01:12;100793.06;;;8.51;96.88
74594;BME280;63097;51.872;4.460;2023-04-23T03:03:38;100795.81;;;8.51;96.66
74594;BME280;63097;51.872;4.460;2023-04-23T03:06:03;100790.16;;;8.57;96.45
74594;BME280;63097;51.872;4.460;2023-04-23T03:08:29;100780.03;;;8.40;96.94
74594;BME280;63097;51.872;4.460;2023-04-23T03:10:54;100783.03;;;8.50;96.72
74594;BME280;63097;51.872;4.460;2023-04-23T03:13:19;100786.91;;;8.49;97.03
74594;BME280;63097;51.872;4.460;2023-04-23T03:15:45;100780.63;;;8.42;96.65
74594;BME280;63097;51.872;4.460;2023-04-23T03:18:10;100783.28;;;8.37;97.23
74594;BME280;63097;51.872;4.460;2023-04-23T03:20:35;100785.94;;;8.43;96.79
74594;BME280;63097;51.872;4.460;2023-04-23T03:23:01;100780.63;;;8.42;96.54
74594;BME280;63097;51.872;4.460;2023-04-23T03:25:27;100783.03;;;8.38;96.95
74594;BME280;63097;51.872;4.460;2023-04-23T03:27:52;100784.38;;;8.47;97.07
74594;BME280;63097;51.872;4.460;2023-04-23T03:30:18;100784.50;;;8.52;96.42
74594;BME280;63097;51.872;4.460;2023-04-23T03:32:44;100778.56;;;8.37;96.94
74594;BME280;63097;51.872;4.460;2023-04-23T03:35:09;100777.25;;;8.40;96.97
74594;BME280;63097;51.872;4.460;2023-04-23T03:37:34;100778.09;;;8.40;96.84
74594;BME280;63097;51.872;4.460;2023-04-23T03:40:00;100776.91;;;8.36;96.75
74594;BME280;63097;51.872;4.460;2023-04-23T03:42:25;100776.34;;;8.16;97.45
74594;BME280;63097;51.872;4.460;2023-04-23T03:44:50;100776.88;;;8.25;97.87
74594;BME280;63097;51.872;4.460;2023-04-23T03:47:16;100789.38;;;8.15;98.08
74594;BME280;63097;51.872;4.460;2023-04-23T03:49:43;100789.88;;;8.24;98.24
74594;BME280;63097;51.872;4.460;2023-04-23T03:52:08;100794.41;;;8.18;98.06
74594;BME280;63097;51.872;4.460;2023-04-23T03:54:33;100795.06;;;8.32;98.35
74594;BME280;63097;51.872;4.460;2023-04-23T03:56:59;100793.53;;;8.48;97.09
74594;BME280;63097;51.872;4.460;2023-04-23T03:59:24;100784.25;;;8.42;96.94
74594;BME280;63097;51.872;4.460;2023-04-23T04:01:49;100789.81;;;8.42;97.07
74594;BME280;63097;51.872;4.460;2023-04-23T04:04:14;100781.22;;;8.55;96.90
74594;BME280;63097;51.872;4.460;2023-04-23T04:06:40;100795.09;;;8.44;96.77
74594;BME280;63097;51.872;4.460;2023-04-23T04:09:05;100782.31;;;8.43;97.01
74594;BME280;63097;51.872;4.460;2023-04-23T04:11:31;100784.25;;;8.42;96.99
74594;BME280;63097;51.872;4.460;2023-04-23T04:13:56;100783.03;;;8.38;97.26
74594;BME280;63097;51.872;4.460;2023-04-23T04:16:21;100777.00;;;8.41;97.50
74594;BME280;63097;51.872;4.460;2023-04-23T04:18:47;100773.16;;;8.31;97.51
74594;BME280;63097;51.872;4.460;2023-04-23T04:21:12;100775.31;;;8.29;97.73
74594;BME280;63097;51.872;4.460;2023-04-23T04:23:37;100773.66;;;8.28;98.29
74594;BME280;63097;51.872;4.460;2023-04-23T04:26:03;100770.75;;;8.34;97.87
74594;BME280;63097;51.872;4.460;2023-04-23T04:28:28;100780.88;;;8.29;97.71
74594;BME280;63097;51.872;4.460;2023-04-23T04:30:53;100782.78;;;8.28;97.68
74594;BME280;63097;51.872;4.460;2023-04-23T04:33:19;100771.13;;;8.49;97.32
74594;BME280;63097;51.872;4.460;2023-04-23T04:35:45;100780.38;;;8.43;96.76
74594;BME280;63097;51.872;4.460;2023-04-23T04:38:10;100768.31;;;8.61;96.74
74594;BME280;63097;51.872;4.460;2023-04-23T04:40:36;100773.75;;;8.44;96.55
74594;BME280;63097;51.872;4.460;2023-04-23T04:43:01;100773.88;;;8.38;97.19
74594;BME280;63097;51.872;4.460;2023-04-23T04:45:26;100775.06;;;8.30;97.15
74594;BME280;63097;51.872;4.460;2023-04-23T04:47:52;100781.78;;;8.23;98.06
74594;BME280;63097;51.872;4.460;2023-04-23T04:50:17;100781.84;;;8.46;98.06
74594;BME280;63097;51.872;4.460;2023-04-23T04:52:42;100782.81;;;8.40;97.40
74594;BME280;63097;51.872;4.460;2023-04-23T04:55:08;100781.81;;;8.57;96.92
74594;BME280;63097;51.872;4.460;2023-04-23T04:57:33;100783.88;;;8.50;96.99
74594;BME280;63097;51.872;4.460;2023-04-23T05:00:01;100788.09;;;8.41;97.65
74594;BME280;63097;51.872;4.460;2023-04-23T05:02:27;100788.59;;;8.38;97.72
74594;BME280;63097;51.872;4.460;2023-04-23T05:04:52;100798.47;;;8.34;97.79
74594;BME280;63097;51.872;4.460;2023-04-23T05:07:18;100796.91;;;8.38;97.40
74594;BME280;63097;51.872;4.460;2023-04-23T05:09:43;100789.03;;;8.24;98.19
74594;BME280;63097;51.872;4.460;2023-04-23T05:12:08;100783.13;;;8.32;98.24
74594;BME280;63097;51.872;4.460;2023-04-23T05:14:34;100779.56;;;8.31;98.12
74594;BME280;63097;51.872;4.460;2023-04-23T05:16:59;100780.19;;;8.15;98.56
74594;BME280;63097;51.872;4.460;2023-04-23T05:19:24;100777.97;;;8.35;98.64
74594;BME280;63097;51.872;4.460;2023-04-23T05:21:50;100774.00;;;8.31;98.13
74594;BME280;63097;51.872;4.460;2023-04-23T05:24:15;100769.78;;;8.40;97.17
74594;BME280;63097;51.872;4.460;2023-04-23T05:26:40;100781.00;;;8.45;97.34
74594;BME280;63097;51.872;4.460;2023-04-23T05:29:06;100781.00;;;8.45;97.71
74594;BME280;63097;51.872;4.460;2023-04-23T05:31:31;100776.66;;;8.49;97.16
74594;BME280;63097;51.872;4.460;2023-04-23T05:33:56;100774.25;;;8.53;97.29
74594;BME280;63097;51.872;4.460;2023-04-23T05:36:22;100781.38;;;8.60;97.14
74594;BME280;63097;51.872;4.460;2023-04-23T05:38:47;100779.78;;;8.53;97.23
74594;BME280;63097;51.872;4.460;2023-04-23T05:41:12;100775.06;;;8.65;96.32
74594;BME280;63097;51.872;4.460;2023-04-23T05:43:38;100785.34;;;8.53;97.14
74594;BME280;63097;51.872;4.460;2023-04-23T05:46:04;100765.91;;;8.76;96.41
74594;BME280;63097;51.872;4.460;2023-04-23T05:48:29;100774.34;;;8.81;96.04
74594;BME280;63097;51.872;4.460;2023-04-23T05:50:54;100772.63;;;9.03;95.33
74594;BME280;63097;51.872;4.460;2023-04-23T05:53:20;100753.94;;;8.87;95.09
74594;BME280;63097;51.872;4.460;2023-04-23T05:55:45;100772.44;;;9.21;94.50
74594;BME280;63097;51.872;4.460;2023-04-23T05:58:10;100772.59;;;9.14;94.55
74594;BME280;63097;51.872;4.460;2023-04-23T06:00:36;100782.47;;;9.22;94.84
74594;BME280;63097;51.872;4.460;2023-04-23T06:03:01;100776.72;;;9.40;94.59
74594;BME280;63097;51.872;4.460;2023-04-23T06:05:26;100778.06;;;9.38;94.39
74594;BME280;63097;51.872;4.460;2023-04-23T06:07:52;100776.28;;;9.60;94.42
74594;BME280;63097;51.872;4.460;2023-04-23T06:10:17;100766.72;;;9.67;93.42
74594;BME280;63097;51.872;4.460;2023-04-23T06:12:42;100766.75;;;9.84;92.86
74594;BME280;63097;51.872;4.460;2023-04-23T06:15:08;100753.72;;;9.84;92.31
74594;BME280;63097;51.872;4.460;2023-04-23T06:17:37;100762.66;;;10.03;91.91
74594;BME280;63097;51.872;4.460;2023-04-23T06:20:02;100764.06;;;10.17;90.97
74594;BME280;63097;51.872;4.460;2023-04-23T06:22:28;100752.94;;;10.17;91.32
74594;BME280;63097;51.872;4.460;2023-04-23T06:24:53;100756.31;;;10.36;90.25
74594;BME280;63097;51.872;4.460;2023-04-23T06:27:19;100764.22;;;10.44;90.38
74594;BME280;63097;51.872;4.460;2023-04-23T06:29:44;100757.97;;;10.53;89.07
74594;BME280;63097;51.872;4.460;2023-04-23T06:32:09;100754.69;;;10.56;89.53
74594;BME280;63097;51.872;4.460;2023-04-23T06:34:34;100751.69;;;10.79;88.29
74594;BME280;63097;51.872;4.460;2023-04-23T06:37:00;100747.03;;;10.85;88.50
74594;BME280;63097;51.872;4.460;2023-04-23T06:39:25;100746.47;;;11.04;88.01
74594;BME280;63097;51.872;4.460;2023-04-23T06:41:51;100743.28;;;11.39;88.03
74594;BME280;63097;51.872;4.460;2023-04-23T06:44:16;100746.59;;;11.36;86.56
74594;BME280;63097;51.872;4.460;2023-04-23T06:46:41;100738.50;;;11.35;87.57
74594;BME280;63097;51.872;4.460;2023-04-23T06:49:07;100741.38;;;11.45;86.34
74594;BME280;63097;51.872;4.460;2023-04-23T06:51:33;100743.00;;;11.62;85.72
74594;BME280;63097;51.872;4.460;2023-04-23T06:53:58;100731.56;;;11.85;86.87
74594;BME280;63097;51.872;4.460;2023-04-23T06:56:24;100737.13;;;11.85;84.49
74594;BME280;63097;51.872;4.460;2023-04-23T06:58:49;100728.88;;;11.95;85.74
74594;BME280;63097;51.872;4.460;2023-04-23T07:01:14;100738.25;;;12.16;84.67
74594;BME280;63097;51.872;4.460;2023-04-23T07:03:40;100743.88;;;12.21;83.72
74594;BME280;63097;51.872;4.460;2023-04-23T07:06:05;100737.75;;;12.24;83.47
74594;BME280;63097;51.872;4.460;2023-04-23T07:08:30;100741.19;;;12.36;82.64
74594;BME280;63097;51.872;4.460;2023-04-23T07:10:56;100733.50;;;12.48;81.48
74594;BME280;63097;51.872;4.460;2023-04-23T07:13:21;100731.59;;;12.54;81.56
74594;BME280;63097;51.872;4.460;2023-04-23T07:15:47;100730.88;;;12.73;80.50
74594;BME280;63097;51.872;4.460;2023-04-23T07:18:13;100740.66;;;12.76;80.05
74594;BME280;63097;51.872;4.460;2023-04-23T07:20:38;100727.03;;;12.89;81.04
74594;BME280;63097;51.872;4.460;2023-04-23T07:23:03;100720.31;;;12.80;79.16
74594;BME280;63097;51.872;4.460;2023-04-23T07:25:29;100720.69;;;12.99;79.46
74594;BME280;63097;51.872;4.460;2023-04-23T07:27:55;100723.47;;;12.99;79.52
74594;BME280;63097;51.872;4.460;2023-04-23T07:30:23;100727.81;;;13.27;80.02
74594;BME280;63097;51.872;4.460;2023-04-23T07:32:48;100724.19;;;13.26;79.38
74594;BME280;63097;51.872;4.460;2023-04-23T07:35:13;100722.16;;;13.06;78.77
74594;BME280;63097;51.872;4.460;2023-04-23T07:37:39;100727.91;;;12.95;78.89
74594;BME280;63097;51.872;4.460;2023-04-23T07:40:05;100724.97;;;13.11;79.11
74594;BME280;63097;51.872;4.460;2023-04-23T07:42:31;100714.44;;;13.29;78.01
74594;BME280;63097;51.872;4.460;2023-04-23T07:44:56;100718.66;;;13.46;78.77
74594;BME280;63097;51.872;4.460;2023-04-23T07:47:21;100720.00;;;13.24;77.99
74594;BME280;63097;51.872;4.460;2023-04-23T07:49:47;100723.44;;;13.51;78.63
74594;BME280;63097;51.872;4.460;2023-04-23T07:52:12;100706.63;;;13.41;77.48
74594;BME280;63097;51.872;4.460;2023-04-23T07:54:38;100709.19;;;13.52;77.16
74594;BME280;63097;51.872;4.460;2023-04-23T07:57:03;100699.47;;;13.90;77.17
74594;BME280;63097;51.872;4.460;2023-04-23T07:59:28;100696.09;;;13.83;76.71
74594;BME280;63097;51.872;4.460;2023-04-23T08:01:54;100689.69;;;13.97;75.46
74594;BME280;63097;51.872;4.460;2023-04-23T08:04:19;100702.56;;;14.24;75.83
74594;BME280;63097;51.872;4.460;2023-04-23T08:06:44;100696.44;;;14.27;74.46
74594;BME280;63097;51.872;4.460;2023-04-23T08:09:09;100694.16;;;14.03;75.02
74594;BME280;63097;51.872;4.460;2023-04-23T08:11:35;100698.34;;;14.21;74.94
74594;BME280;63097;51.872;4.460;2023-04-23T08:14:00;100694.75;;;14.31;74.90
74594;BME280;63097;51.872;4.460;2023-04-23T08:16:26;100697.22;;;14.62;73.27
74594;BME280;63097;51.872;4.460;2023-04-23T08:18:51;100701.97;;;14.67;72.46
74594;BME280;63097;51.872;4.460;2023-04-23T08:21:17;100692.19;;;14.54;72.49
74594;BME280;63097;51.872;4.460;2023-04-23T08:23:42;100698.09;;;14.53;73.21
74594;BME280;63097;51.872;4.460;2023-04-23T08:26:07;100706.47;;;14.63;73.51
74594;BME280;63097;51.872;4.460;2023-04-23T08:28:33;100708.34;;;14.97;72.62
74594;BME280;63097;51.872;4.460;2023-04-23T08:30:59;100699.34;;;15.10;69.38
74594;BME280;63097;51.872;4.460;2023-04-23T08:33:24;100708.50;;;15.26;70.31
74594;BME280;63097;51.872;4.460;2023-04-23T08:35:49;100704.53;;;14.43;72.83
74594;BME280;63097;51.872;4.460;2023-04-23T08:38:15;100711.75;;;14.74;72.66
74594;BME280;63097;51.872;4.460;2023-04-23T08:40:41;100715.66;;;14.83;70.05
74594;BME280;63097;51.872;4.460;2023-04-23T08:43:18;100713.72;;;14.79;69.26
74594;BME280;63097;51.872;4.460;2023-04-23T08:45:46;100713.72;;;14.69;70.85
74594;BME280;63097;51.872;4.460;2023-04-23T08:48:12;100712.06;;;14.68;71.32
74594;BME280;63097;51.872;4.460;2023-04-23T08:50:41;100712.25;;;15.01;70.90
74594;BME280;63097;51.872;4.460;2023-04-23T08:53:07;100712.78;;;15.13;70.67
74594;BME280;63097;51.872;4.460;2023-04-23T08:55:33;100709.72;;;15.00;70.73
74594;BME280;63097;51.872;4.460;2023-04-23T08:57:59;100699.88;;;15.18;70.68
74594;BME280;63097;51.872;4.460;2023-04-23T09:00:25;100707.88;;;15.39;69.36
74594;BME280;63097;51.872;4.460;2023-04-23T09:02:50;100701.50;;;15.82;69.24
74594;BME280;63097;51.872;4.460;2023-04-23T09:05:15;100705.28;;;16.01;67.24
74594;BME280;63097;51.872;4.460;2023-04-23T09:07:41;100698.25;;;16.04;66.29
74594;BME280;63097;51.872;4.460;2023-04-23T09:10:08;100704.66;;;15.71;67.55
74594;BME280;63097;51.872;4.460;2023-04-23T09:12:34;100707.25;;;15.57;68.81
74594;BME280;63097;51.872;4.460;2023-04-23T09:15:01;100695.03;;;15.33;69.82
74594;BME280;63097;51.872;4.460;2023-04-23T09:17:28;100699.88;;;15.18;70.20
74594;BME280;63097;51.872;4.460;2023-04-23T09:19:53;100697.13;;;15.02;71.30
74594;BME280;63097;51.872;4.460;2023-04-23T09:25:03;100682.06;;;15.52;69.71
74594;BME280;63097;51.872;4.460;2023-04-23T09:27:29;100690.00;;;15.84;68.32
74594;BME280;63097;51.872;4.460;2023-04-23T09:29:54;100699.44;;;15.49;69.34
74594;BME280;63097;51.872;4.460;2023-04-23T09:32:30;100685.34;;;15.64;68.98
74594;BME280;63097;51.872;4.460;2023-04-23T09:34:56;100680.28;;;15.66;66.32
74594;BME280;63097;51.872;4.460;2023-04-23T09:37:24;100697.22;;;15.90;66.77
74594;BME280;63097;51.872;4.460;2023-04-23T09:39:50;100682.78;;;15.73;66.30
74594;BME280;63097;51.872;4.460;2023-04-23T09:42:16;100677.28;;;15.91;66.38
74594;BME280;63097;51.872;4.460;2023-04-23T09:44:41;100667.53;;;16.18;65.25
74594;BME280;63097;51.872;4.460;2023-04-23T09:47:07;100661.28;;;16.83;65.70
74594;BME280;63097;51.872;4.460;2023-04-23T09:49:44;100668.91;;;17.06;63.06
74594;BME280;63097;51.872;4.460;2023-04-23T09:52:09;100664.69;;;16.80;62.83
74594;BME280;63097;51.872;4.460;2023-04-23T09:54:34;100651.00;;;16.16;64.13
74594;BME280;63097;51.872;4.460;2023-04-23T09:57:00;100663.47;;;16.34;63.04
74594;BME280;63097;51.872;4.460;2023-04-23T09:59:27;100669.00;;;16.72;62.36
74594;BME280;63097;51.872;4.460;2023-04-23T10:01:53;100662.06;;;16.88;62.83
74594;BME280;63097;51.872;4.460;2023-04-23T10:04:23;100664.69;;;17.03;60.55
74594;BME280;63097;51.872;4.460;2023-04-23T10:07:03;100661.69;;;17.19;58.82
74594;BME280;63097;51.872;4.460;2023-04-23T10:09:29;100647.03;;;17.03;61.27
74594;BME280;63097;51.872;4.460;2023-04-23T10:12:00;100641.41;;;17.03;60.13
74594;BME280;63097;51.872;4.460;2023-04-23T10:14:26;100648.06;;;16.31;63.19
74594;BME280;63097;51.872;4.460;2023-04-23T10:16:59;100643.78;;;16.67;61.05
74594;BME280;63097;51.872;4.460;2023-04-23T10:19:25;100643.47;;;16.92;59.48
74594;BME280;63097;51.872;4.460;2023-04-23T10:21:56;100640.00;;;16.53;60.73
74594;BME280;63097;51.872;4.460;2023-04-23T10:24:23;100646.28;;;16.69;60.33
74594;BME280;63097;51.872;4.460;2023-04-23T10:26:49;100644.88;;;16.71;60.78
74594;BME280;63097;51.872;4.460;2023-04-23T10:29:16;100638.78;;;16.88;60.30
74594;BME280;63097;51.872;4.460;2023-04-23T10:31:44;100628.53;;;17.39;58.67
74594;BME280;63097;51.872;4.460;2023-04-23T10:34:10;100638.25;;;17.28;59.02
74594;BME280;63097;51.872;4.460;2023-04-23T10:36:37;100627.78;;;16.68;59.75
74594;BME280;63097;51.872;4.460;2023-04-23T10:39:02;100621.81;;;16.46;60.63
74594;BME280;63097;51.872;4.460;2023-04-23T10:41:34;100608.81;;;16.78;60.79
74594;BME280;63097;51.872;4.460;2023-04-23T10:44:00;100624.66;;;16.69;61.71
74594;BME280;63097;51.872;4.460;2023-04-23T10:46:27;100605.41;;;16.81;58.88
74594;BME280;63097;51.872;4.460;2023-04-23T10:49:11;100599.97;;;16.90;59.34
74594;BME280;63097;51.872;4.460;2023-04-23T10:51:37;100597.81;;;17.43;58.26
74594;BME280;63097;51.872;4.460;2023-04-23T10:54:03;100596.78;;;17.76;58.17
74594;BME280;63097;51.872;4.460;2023-04-23T10:56:28;100590.94;;;17.54;56.70
74594;BME280;63097;51.872;4.460;2023-04-23T10:58:54;100600.59;;;17.48;56.02
74594;BME280;63097;51.872;4.460;2023-04-23T11:01:23;100590.94;;;16.93;57.35
74594;BME280;63097;51.872;4.460;2023-04-23T11:03:50;100599.25;;;16.79;57.89
74594;BME280;63097;51.872;4.460;2023-04-23T11:11:56;100565.22;;;17.23;57.92
74594;BME280;63097;51.872;4.460;2023-04-23T11:14:32;100570.69;;;17.33;58.38
74594;BME280;63097;51.872;4.460;2023-04-23T11:16:58;100566.63;;;17.76;57.17
74594;BME280;63097;51.872;4.460;2023-04-23T11:19:23;100560.00;;;17.86;56.55
74594;BME280;63097;51.872;4.460;2023-04-23T11:22:14;100573.34;;;18.26;55.26
74594;BME280;63097;51.872;4.460;2023-04-23T11:24:41;100563.22;;;17.79;55.39
74594;BME280;63097;51.872;4.460;2023-04-23T11:29:36;100552.63;;;17.90;55.76
74594;BME280;63097;51.872;4.460;2023-04-23T11:32:01;100552.38;;;18.19;54.16
74594;BME280;63097;51.872;4.460;2023-04-23T11:34:27;100539.84;;;17.97;54.73
74594;BME280;63097;51.872;4.460;2023-04-23T11:36:53;100533.88;;;17.85;54.28
74594;BME280;63097;51.872;4.460;2023-04-23T11:39:23;100533.38;;;17.46;56.02
74594;BME280;63097;51.872;4.460;2023-04-23T11:41:48;100525.41;;;17.53;57.20
74594;BME280;63097;51.872;4.460;2023-04-23T11:44:13;100518.13;;;17.34;55.53
74594;BME280;63097;51.872;4.460;2023-04-23T11:46:39;100520.06;;;18.16;52.33
74594;BME280;63097;51.872;4.460;2023-04-23T11:49:04;100507.69;;;17.34;55.48
74594;BME280;63097;51.872;4.460;2023-04-23T11:51:30;100508.59;;;18.26;54.76
74594;BME280;63097;51.872;4.460;2023-04-23T11:54:01;100509.88;;;18.74;52.85
74594;BME280;63097;51.872;4.460;2023-04-23T11:56:31;100508.31;;;17.82;55.37
74594;BME280;63097;51.872;4.460;2023-04-23T11:59:01;100508.00;;;17.14;56.62
74594;BME280;63097;51.872;4.460;2023-04-23T12:01:26;100503.56;;;17.45;56.68
74594;BME280;63097;51.872;4.460;2023-04-23T12:03:51;100517.94;;;17.62;55.60
74594;BME280;63097;51.872;4.460;2023-04-23T12:06:17;100492.28;;;17.32;56.21
74594;BME280;63097;51.872;4.460;2023-04-23T12:08:45;100496.31;;;17.26;56.43
74594;BME280;63097;51.872;4.460;2023-04-23T12:11:11;100491.38;;;17.18;56.87
74594;BME280;63097;51.872;4.460;2023-04-23T12:13:39;100485.84;;;16.75;57.72
74594;BME280;63097;51.872;4.460;2023-04-23T12:16:04;100486.09;;;16.74;57.68
74594;BME280;63097;51.872;4.460;2023-04-23T12:18:32;100483.88;;;16.52;59.08
74594;BME280;63097;51.872;4.460;2023-04-23T12:21:13;100494.38;;;16.42;59.27
74594;BME280;63097;51.872;4.460;2023-04-23T12:23:40;100492.72;;;16.17;59.50
74594;BME280;63097;51.872;4.460;2023-04-23T12:26:13;100489.66;;;16.13;61.53
74594;BME280;63097;51.872;4.460;2023-04-23T12:29:05;100494.22;;;15.81;66.58
74594;BME280;63097;51.872;4.460;2023-04-23T12:31:31;100488.44;;;15.00;71.51
74594;BME280;63097;51.872;4.460;2023-04-23T12:34:07;100508.69;;;14.33;75.40
74594;BME280;63097;51.872;4.460;2023-04-23T12:36:35;100505.44;;;13.76;76.65
74594;BME280;63097;51.872;4.460;2023-04-23T12:39:29;100504.34;;;13.67;75.94
74594;BME280;63097;51.872;4.460;2023-04-23T12:42:00;100487.56;;;13.77;77.38
74594;BME280;63097;51.872;4.460;2023-04-23T12:44:26;100477.41;;;14.01;76.46
74594;BME280;63097;51.872;4.460;2023-04-23T12:46:59;100483.78;;;14.27;74.93
74594;BME280;63097;51.872;4.460;2023-04-23T12:49:25;100481.69;;;14.62;71.79
74594;BME280;63097;51.872;4.460;2023-04-23T12:51:52;100470.50;;;14.57;69.69
74594;BME280;63097;51.872;4.460;2023-04-23T12:54:17;100473.34;;;14.47;72.67
74594;BME280;63097;51.872;4.460;2023-04-23T12:56:43;100477.22;;;14.56;72.04
74594;BME280;63097;51.872;4.460;2023-04-23T12:59:08;100471.16;;;14.39;71.66
74594;BME280;63097;51.872;4.460;2023-04-23T13:01:33;100466.06;;;14.51;72.80